<?xml version="1.0" encoding="UTF-8" standalone="no" ?>
<gpx xmlns="http://www.topografix.com/GPX/1/1" xmlns:xsi="http://www.w3.org/2001/XMLSchema-instance" xsi:schemaLocation="http://www.topografix.com/GPX/1/1 http://www.topografix.com/GPX/1/1/gpx.xsd" version="1.1" creator="VisuGPX - https://www.visugpx.com">
  <metadata>
    <name>Tour du Ter</name>
    <desc><![CDATA[l\'entrainement du midi]]></desc>
  </metadata>
  <trk>
    <name><![CDATA[Tour du Ter_1]]></name>
    <cmt><![CDATA[meilleur tour 2011 99 % dans le rouge]]></cmt>
    <trkseg>
      <trkpt lat="47.73643" lon="-3.40324">
        <ele>5.3972702026367</ele>
        <time>2011-11-04T11:25:41Z</time>
      </trkpt>
      <trkpt lat="47.73636" lon="-3.40311">
        <ele>5.6410293579102</ele>
        <time>2011-11-04T11:25:45Z</time>
      </trkpt>
      <trkpt lat="47.73621" lon="-3.40299">
        <ele>5.9654693603516</ele>
        <time>2011-11-04T11:25:49Z</time>
      </trkpt>
      <trkpt lat="47.73617" lon="-3.40297">
        <ele>6.0355644226074</ele>
        <time>2011-11-04T11:25:50Z</time>
      </trkpt>
      <trkpt lat="47.73613" lon="-3.40295">
        <ele>6.1059455871582</ele>
        <time>2011-11-04T11:25:51Z</time>
      </trkpt>
      <trkpt lat="47.73605" lon="-3.40292">
        <ele>6.2409858703613</ele>
        <time>2011-11-04T11:25:53Z</time>
      </trkpt>
      <trkpt lat="47.73598" lon="-3.40292">
        <ele>6.3182334899902</ele>
        <time>2011-11-04T11:25:55Z</time>
      </trkpt>
      <trkpt lat="47.73575" lon="-3.40295">
        <ele>6.5532956123352</ele>
        <time>2011-11-04T11:26:00Z</time>
      </trkpt>
      <trkpt lat="47.73567" lon="-3.40294">
        <ele>6.6367383003235</ele>
        <time>2011-11-04T11:26:02Z</time>
      </trkpt>
      <trkpt lat="47.7356" lon="-3.40295">
        <ele>6.7004203796387</ele>
        <time>2011-11-04T11:26:04Z</time>
      </trkpt>
      <trkpt lat="47.73543" lon="-3.40297">
        <ele>6.8060660362244</ele>
        <time>2011-11-04T11:26:08Z</time>
      </trkpt>
      <trkpt lat="47.73519" lon="-3.40311">
        <ele>6.3128242492676</ele>
        <time>2011-11-04T11:26:14Z</time>
      </trkpt>
      <trkpt lat="47.73511" lon="-3.40315">
        <ele>6.0925812721252</ele>
        <time>2011-11-04T11:26:16Z</time>
      </trkpt>
      <trkpt lat="47.73504" lon="-3.4032">
        <ele>5.7883334159851</ele>
        <time>2011-11-04T11:26:18Z</time>
      </trkpt>
      <trkpt lat="47.735" lon="-3.40323">
        <ele>5.6329350471497</ele>
        <time>2011-11-04T11:26:19Z</time>
      </trkpt>
      <trkpt lat="47.73486" lon="-3.40328">
        <ele>5.6407732963562</ele>
        <time>2011-11-04T11:26:23Z</time>
      </trkpt>
      <trkpt lat="47.73462" lon="-3.40334">
        <ele>5.8672122955322</ele>
        <time>2011-11-04T11:26:29Z</time>
      </trkpt>
      <trkpt lat="47.73443" lon="-3.40327">
        <ele>6.8236680030823</ele>
        <time>2011-11-04T11:26:34Z</time>
      </trkpt>
      <trkpt lat="47.73439" lon="-3.40325">
        <ele>7.0319948196411</ele>
        <time>2011-11-04T11:26:35Z</time>
      </trkpt>
      <trkpt lat="47.73424" lon="-3.40316">
        <ele>8.0304841995239</ele>
        <time>2011-11-04T11:26:39Z</time>
      </trkpt>
      <trkpt lat="47.73407" lon="-3.403">
        <ele>8.9734897613525</ele>
        <time>2011-11-04T11:26:44Z</time>
      </trkpt>
      <trkpt lat="47.7339" lon="-3.40284">
        <ele>9.0951251983643</ele>
        <time>2011-11-04T11:26:49Z</time>
      </trkpt>
      <trkpt lat="47.73378" lon="-3.40273">
        <ele>8.8864431381226</ele>
        <time>2011-11-04T11:26:53Z</time>
      </trkpt>
      <trkpt lat="47.73367" lon="-3.40261">
        <ele>8.4843378067017</ele>
        <time>2011-11-04T11:26:57Z</time>
      </trkpt>
      <trkpt lat="47.73357" lon="-3.4025">
        <ele>7.9916648864746</ele>
        <time>2011-11-04T11:27:00Z</time>
      </trkpt>
      <trkpt lat="47.73349" lon="-3.40237">
        <ele>8.3656444549561</ele>
        <time>2011-11-04T11:27:03Z</time>
      </trkpt>
      <trkpt lat="47.73338" lon="-3.40226">
        <ele>8.4220523834228</ele>
        <time>2011-11-04T11:27:07Z</time>
      </trkpt>
      <trkpt lat="47.73322" lon="-3.40207">
        <ele>9.2047500610352</ele>
        <time>2011-11-04T11:27:13Z</time>
      </trkpt>
      <trkpt lat="47.7331" lon="-3.40192">
        <ele>9.5953683853149</ele>
        <time>2011-11-04T11:27:17Z</time>
      </trkpt>
      <trkpt lat="47.73296" lon="-3.40174">
        <ele>9.2702016830444</ele>
        <time>2011-11-04T11:27:22Z</time>
      </trkpt>
      <trkpt lat="47.73284" lon="-3.40146">
        <ele>8.9776906967163</ele>
        <time>2011-11-04T11:27:28Z</time>
      </trkpt>
      <trkpt lat="47.73278" lon="-3.40122">
        <ele>9.1897869110107</ele>
        <time>2011-11-04T11:27:33Z</time>
      </trkpt>
      <trkpt lat="47.73275" lon="-3.40098">
        <ele>9.4455375671387</ele>
        <time>2011-11-04T11:27:38Z</time>
      </trkpt>
      <trkpt lat="47.73273" lon="-3.40077">
        <ele>9.5640411376953</ele>
        <time>2011-11-04T11:27:43Z</time>
      </trkpt>
      <trkpt lat="47.73272" lon="-3.40067">
        <ele>9.4140110015869</ele>
        <time>2011-11-04T11:27:45Z</time>
      </trkpt>
      <trkpt lat="47.73273" lon="-3.40047">
        <ele>9.6613245010376</ele>
        <time>2011-11-04T11:27:49Z</time>
      </trkpt>
      <trkpt lat="47.73273" lon="-3.40037">
        <ele>9.8189182281494</ele>
        <time>2011-11-04T11:27:51Z</time>
      </trkpt>
      <trkpt lat="47.73277" lon="-3.4001">
        <ele>10.542338371277</ele>
        <time>2011-11-04T11:27:56Z</time>
      </trkpt>
      <trkpt lat="47.73284" lon="-3.39991">
        <ele>11.273876190186</ele>
        <time>2011-11-04T11:28:00Z</time>
      </trkpt>
      <trkpt lat="47.73289" lon="-3.39975">
        <ele>11.327989578247</ele>
        <time>2011-11-04T11:28:04Z</time>
      </trkpt>
      <trkpt lat="47.73296" lon="-3.39957">
        <ele>11.23025894165</ele>
        <time>2011-11-04T11:28:08Z</time>
      </trkpt>
      <trkpt lat="47.73303" lon="-3.39938">
        <ele>10.855345726013</ele>
        <time>2011-11-04T11:28:13Z</time>
      </trkpt>
      <trkpt lat="47.7331" lon="-3.39918">
        <ele>10.109172821045</ele>
        <time>2011-11-04T11:28:18Z</time>
      </trkpt>
      <trkpt lat="47.73321" lon="-3.39898">
        <ele>9.81982421875</ele>
        <time>2011-11-04T11:28:23Z</time>
      </trkpt>
      <trkpt lat="47.73331" lon="-3.39878">
        <ele>9.5211334228516</ele>
        <time>2011-11-04T11:28:28Z</time>
      </trkpt>
      <trkpt lat="47.7334" lon="-3.39868">
        <ele>9.7171325683594</ele>
        <time>2011-11-04T11:28:32Z</time>
      </trkpt>
      <trkpt lat="47.73352" lon="-3.39862">
        <ele>10.482456207275</ele>
        <time>2011-11-04T11:28:36Z</time>
      </trkpt>
      <trkpt lat="47.73362" lon="-3.39841">
        <ele>10.162879943848</ele>
        <time>2011-11-04T11:28:42Z</time>
      </trkpt>
      <trkpt lat="47.73371" lon="-3.39826">
        <ele>10.200426101685</ele>
        <time>2011-11-04T11:28:46Z</time>
      </trkpt>
      <trkpt lat="47.7338" lon="-3.39809">
        <ele>10.168488502502</ele>
        <time>2011-11-04T11:28:51Z</time>
      </trkpt>
      <trkpt lat="47.73391" lon="-3.39789">
        <ele>10.026796340942</ele>
        <time>2011-11-04T11:28:56Z</time>
      </trkpt>
      <trkpt lat="47.73401" lon="-3.39773">
        <ele>10.016206741333</ele>
        <time>2011-11-04T11:29:00Z</time>
      </trkpt>
      <trkpt lat="47.73413" lon="-3.39757">
        <ele>10.086807250977</ele>
        <time>2011-11-04T11:29:05Z</time>
      </trkpt>
      <trkpt lat="47.73421" lon="-3.39747">
        <ele>10.42529296875</ele>
        <time>2011-11-04T11:29:09Z</time>
      </trkpt>
      <trkpt lat="47.73428" lon="-3.39743">
        <ele>11.0478515625</ele>
        <time>2011-11-04T11:29:13Z</time>
      </trkpt>
      <trkpt lat="47.73432" lon="-3.39742">
        <ele>11.4873046875</ele>
        <time>2011-11-04T11:29:15Z</time>
      </trkpt>
      <trkpt lat="47.73444" lon="-3.39749">
        <ele>12.5859375</ele>
        <time>2011-11-04T11:29:20Z</time>
      </trkpt>
      <trkpt lat="47.73458" lon="-3.39756">
        <ele>14.275334358215</ele>
        <time>2011-11-04T11:29:25Z</time>
      </trkpt>
      <trkpt lat="47.73466" lon="-3.39761">
        <ele>15.358973503113</ele>
        <time>2011-11-04T11:29:28Z</time>
      </trkpt>
      <trkpt lat="47.73481" lon="-3.39769">
        <ele>17.08295249939</ele>
        <time>2011-11-04T11:29:33Z</time>
      </trkpt>
      <trkpt lat="47.73491" lon="-3.39765">
        <ele>17.827285766602</ele>
        <time>2011-11-04T11:29:37Z</time>
      </trkpt>
      <trkpt lat="47.73494" lon="-3.39747">
        <ele>17.45654296875</ele>
        <time>2011-11-04T11:29:41Z</time>
      </trkpt>
      <trkpt lat="47.73496" lon="-3.39736">
        <ele>17.6396484375</ele>
        <time>2011-11-04T11:29:44Z</time>
      </trkpt>
      <trkpt lat="47.73489" lon="-3.39726">
        <ele>16.98046875</ele>
        <time>2011-11-04T11:29:47Z</time>
      </trkpt>
      <trkpt lat="47.73476" lon="-3.39713">
        <ele>15.69873046875</ele>
        <time>2011-11-04T11:29:52Z</time>
      </trkpt>
      <trkpt lat="47.73463" lon="-3.39699">
        <ele>14.4169921875</ele>
        <time>2011-11-04T11:29:57Z</time>
      </trkpt>
      <trkpt lat="47.73452" lon="-3.39688">
        <ele>13.42822265625</ele>
        <time>2011-11-04T11:30:01Z</time>
      </trkpt>
      <trkpt lat="47.7344" lon="-3.39676">
        <ele>12.2197265625</ele>
        <time>2011-11-04T11:30:06Z</time>
      </trkpt>
      <trkpt lat="47.73428" lon="-3.39671">
        <ele>11.08447265625</ele>
        <time>2011-11-04T11:30:11Z</time>
      </trkpt>
      <trkpt lat="47.73412" lon="-3.3967">
        <ele>9.571044921875</ele>
        <time>2011-11-04T11:30:17Z</time>
      </trkpt>
      <trkpt lat="47.73394" lon="-3.39674">
        <ele>8.0650024414062</ele>
        <time>2011-11-04T11:30:23Z</time>
      </trkpt>
      <trkpt lat="47.73379" lon="-3.39676">
        <ele>6.8473510742188</ele>
        <time>2011-11-04T11:30:27Z</time>
      </trkpt>
      <trkpt lat="47.73363" lon="-3.39676">
        <ele>5.5015258789062</ele>
        <time>2011-11-04T11:30:32Z</time>
      </trkpt>
      <trkpt lat="47.73346" lon="-3.39679">
        <ele>4.0916137695312</ele>
        <time>2011-11-04T11:30:37Z</time>
      </trkpt>
      <trkpt lat="47.73336" lon="-3.39682">
        <ele>3.2584838867188</ele>
        <time>2011-11-04T11:30:40Z</time>
      </trkpt>
      <trkpt lat="47.73324" lon="-3.39667">
        <ele>2.6575927734375</ele>
        <time>2011-11-04T11:30:45Z</time>
      </trkpt>
      <trkpt lat="47.7332" lon="-3.39649">
        <ele>3.652176618576</ele>
        <time>2011-11-04T11:30:49Z</time>
      </trkpt>
      <trkpt lat="47.73317" lon="-3.3963">
        <ele>4.6629056930542</ele>
        <time>2011-11-04T11:30:53Z</time>
      </trkpt>
      <trkpt lat="47.73309" lon="-3.39609">
        <ele>5.5164933204651</ele>
        <time>2011-11-04T11:30:58Z</time>
      </trkpt>
      <trkpt lat="47.73306" lon="-3.39593">
        <ele>6.1756200790405</ele>
        <time>2011-11-04T11:31:02Z</time>
      </trkpt>
      <trkpt lat="47.733" lon="-3.3957">
        <ele>6.4376645088196</ele>
        <time>2011-11-04T11:31:07Z</time>
      </trkpt>
      <trkpt lat="47.73295" lon="-3.39548">
        <ele>6.3782658576965</ele>
        <time>2011-11-04T11:31:12Z</time>
      </trkpt>
      <trkpt lat="47.73286" lon="-3.39531">
        <ele>6.042781829834</ele>
        <time>2011-11-04T11:31:17Z</time>
      </trkpt>
      <trkpt lat="47.73281" lon="-3.39514">
        <ele>5.9852538108826</ele>
        <time>2011-11-04T11:31:21Z</time>
      </trkpt>
      <trkpt lat="47.73275" lon="-3.39491">
        <ele>6.0111155509949</ele>
        <time>2011-11-04T11:31:26Z</time>
      </trkpt>
      <trkpt lat="47.73269" lon="-3.39472">
        <ele>6.0934686660767</ele>
        <time>2011-11-04T11:31:30Z</time>
      </trkpt>
      <trkpt lat="47.73265" lon="-3.39453">
        <ele>6.3533353805542</ele>
        <time>2011-11-04T11:31:34Z</time>
      </trkpt>
      <trkpt lat="47.73262" lon="-3.39444">
        <ele>6.4892134666443</ele>
        <time>2011-11-04T11:31:36Z</time>
      </trkpt>
      <trkpt lat="47.73253" lon="-3.39416">
        <ele>7.085382938385</ele>
        <time>2011-11-04T11:31:42Z</time>
      </trkpt>
      <trkpt lat="47.73246" lon="-3.39394">
        <ele>6.9668312072754</ele>
        <time>2011-11-04T11:31:47Z</time>
      </trkpt>
      <trkpt lat="47.73242" lon="-3.39371">
        <ele>6.8898696899414</ele>
        <time>2011-11-04T11:31:52Z</time>
      </trkpt>
      <trkpt lat="47.73235" lon="-3.3935">
        <ele>6.5382499694824</ele>
        <time>2011-11-04T11:31:57Z</time>
      </trkpt>
      <trkpt lat="47.73227" lon="-3.39336">
        <ele>6.0289878845215</ele>
        <time>2011-11-04T11:32:01Z</time>
      </trkpt>
      <trkpt lat="47.73218" lon="-3.39323">
        <ele>5.5462112426758</ele>
        <time>2011-11-04T11:32:05Z</time>
      </trkpt>
      <trkpt lat="47.73204" lon="-3.39303">
        <ele>4.9047698974609</ele>
        <time>2011-11-04T11:32:11Z</time>
      </trkpt>
      <trkpt lat="47.73196" lon="-3.3929">
        <ele>4.5339813232422</ele>
        <time>2011-11-04T11:32:15Z</time>
      </trkpt>
      <trkpt lat="47.73193" lon="-3.39272">
        <ele>4.677604675293</ele>
        <time>2011-11-04T11:32:19Z</time>
      </trkpt>
      <trkpt lat="47.73191" lon="-3.39252">
        <ele>5.0415267944336</ele>
        <time>2011-11-04T11:32:23Z</time>
      </trkpt>
      <trkpt lat="47.73191" lon="-3.39247">
        <ele>5.1677894592285</ele>
        <time>2011-11-04T11:32:24Z</time>
      </trkpt>
      <trkpt lat="47.7319" lon="-3.39223">
        <ele>5.8919143676758</ele>
        <time>2011-11-04T11:32:29Z</time>
      </trkpt>
      <trkpt lat="47.73186" lon="-3.39194">
        <ele>6.6792678833008</ele>
        <time>2011-11-04T11:32:35Z</time>
      </trkpt>
      <trkpt lat="47.73185" lon="-3.39169">
        <ele>7.4245643615723</ele>
        <time>2011-11-04T11:32:40Z</time>
      </trkpt>
      <trkpt lat="47.73185" lon="-3.39147">
        <ele>7.5051879882812</ele>
        <time>2011-11-04T11:32:44Z</time>
      </trkpt>
      <trkpt lat="47.73183" lon="-3.39123">
        <ele>7.3770141601562</ele>
        <time>2011-11-04T11:32:49Z</time>
      </trkpt>
      <trkpt lat="47.73182" lon="-3.39096">
        <ele>7.2488403320312</ele>
        <time>2011-11-04T11:32:55Z</time>
      </trkpt>
      <trkpt lat="47.7318" lon="-3.39087">
        <ele>7.1527099609375</ele>
        <time>2011-11-04T11:32:57Z</time>
      </trkpt>
      <trkpt lat="47.73181" lon="-3.39063">
        <ele>7.9789094924927</ele>
        <time>2011-11-04T11:33:02Z</time>
      </trkpt>
      <trkpt lat="47.73179" lon="-3.39041">
        <ele>8.6840505599976</ele>
        <time>2011-11-04T11:33:07Z</time>
      </trkpt>
      <trkpt lat="47.73177" lon="-3.39023">
        <ele>9.3175201416016</ele>
        <time>2011-11-04T11:33:11Z</time>
      </trkpt>
      <trkpt lat="47.73174" lon="-3.39005">
        <ele>9.9543514251709</ele>
        <time>2011-11-04T11:33:15Z</time>
      </trkpt>
      <trkpt lat="47.73171" lon="-3.38982">
        <ele>9.9103889465332</ele>
        <time>2011-11-04T11:33:20Z</time>
      </trkpt>
      <trkpt lat="47.73169" lon="-3.38964">
        <ele>9.6595268249512</ele>
        <time>2011-11-04T11:33:24Z</time>
      </trkpt>
      <trkpt lat="47.73168" lon="-3.38939">
        <ele>9.3356819152832</ele>
        <time>2011-11-04T11:33:29Z</time>
      </trkpt>
      <trkpt lat="47.73166" lon="-3.38926">
        <ele>9.0241270065308</ele>
        <time>2011-11-04T11:33:32Z</time>
      </trkpt>
      <trkpt lat="47.73164" lon="-3.38901">
        <ele>8.2064409255981</ele>
        <time>2011-11-04T11:33:37Z</time>
      </trkpt>
      <trkpt lat="47.73163" lon="-3.38878">
        <ele>7.2833385467529</ele>
        <time>2011-11-04T11:33:42Z</time>
      </trkpt>
      <trkpt lat="47.73165" lon="-3.38858">
        <ele>6.7764973640442</ele>
        <time>2011-11-04T11:33:46Z</time>
      </trkpt>
      <trkpt lat="47.73164" lon="-3.38834">
        <ele>5.8536248207092</ele>
        <time>2011-11-04T11:33:51Z</time>
      </trkpt>
      <trkpt lat="47.73161" lon="-3.3882">
        <ele>5.7082915306091</ele>
        <time>2011-11-04T11:33:54Z</time>
      </trkpt>
      <trkpt lat="47.73154" lon="-3.38802">
        <ele>5.4129824638367</ele>
        <time>2011-11-04T11:33:58Z</time>
      </trkpt>
      <trkpt lat="47.73153" lon="-3.38782">
        <ele>5.5573515892029</ele>
        <time>2011-11-04T11:34:03Z</time>
      </trkpt>
      <trkpt lat="47.73158" lon="-3.38767">
        <ele>6.0446772575378</ele>
        <time>2011-11-04T11:34:07Z</time>
      </trkpt>
      <trkpt lat="47.73162" lon="-3.38754">
        <ele>6.5410943031311</ele>
        <time>2011-11-04T11:34:11Z</time>
      </trkpt>
      <trkpt lat="47.73163" lon="-3.3875">
        <ele>6.678656578064</ele>
        <time>2011-11-04T11:34:12Z</time>
      </trkpt>
      <trkpt lat="47.73167" lon="-3.38721">
        <ele>6.036536693573</ele>
        <time>2011-11-04T11:34:18Z</time>
      </trkpt>
      <trkpt lat="47.73171" lon="-3.38701">
        <ele>5.6446561813355</ele>
        <time>2011-11-04T11:34:22Z</time>
      </trkpt>
      <trkpt lat="47.73176" lon="-3.38683">
        <ele>5.4953217506409</ele>
        <time>2011-11-04T11:34:26Z</time>
      </trkpt>
      <trkpt lat="47.7318" lon="-3.38663">
        <ele>5.2089567184448</ele>
        <time>2011-11-04T11:34:30Z</time>
      </trkpt>
      <trkpt lat="47.73184" lon="-3.38646">
        <ele>5.2510228157044</ele>
        <time>2011-11-04T11:34:34Z</time>
      </trkpt>
      <trkpt lat="47.73184" lon="-3.38637">
        <ele>5.1022567749023</ele>
        <time>2011-11-04T11:34:36Z</time>
      </trkpt>
      <trkpt lat="47.73166" lon="-3.38635">
        <ele>3.6003243923187</ele>
        <time>2011-11-04T11:34:41Z</time>
      </trkpt>
      <trkpt lat="47.73153" lon="-3.38639">
        <ele>3.0427005290985</ele>
        <time>2011-11-04T11:34:45Z</time>
      </trkpt>
      <trkpt lat="47.73142" lon="-3.38637">
        <ele>2.5726933479309</ele>
        <time>2011-11-04T11:34:48Z</time>
      </trkpt>
      <trkpt lat="47.73139" lon="-3.38637">
        <ele>2.4390325546265</ele>
        <time>2011-11-04T11:34:49Z</time>
      </trkpt>
      <trkpt lat="47.73123" lon="-3.38636">
        <ele>1.7179040908814</ele>
        <time>2011-11-04T11:34:54Z</time>
      </trkpt>
      <trkpt lat="47.73107" lon="-3.38636">
        <ele>1.0214155912399</ele>
        <time>2011-11-04T11:34:59Z</time>
      </trkpt>
      <trkpt lat="47.73092" lon="-3.38639">
        <ele>0.39301055669785</ele>
        <time>2011-11-04T11:35:04Z</time>
      </trkpt>
      <trkpt lat="47.7308" lon="-3.38639">
        <ele>0.24763308465481</ele>
        <time>2011-11-04T11:35:08Z</time>
      </trkpt>
      <trkpt lat="47.73077" lon="-3.38639">
        <ele>0.48139744997024</ele>
        <time>2011-11-04T11:35:09Z</time>
      </trkpt>
      <trkpt lat="47.73056" lon="-3.38633">
        <ele>2.1651940345764</ele>
        <time>2011-11-04T11:35:16Z</time>
      </trkpt>
      <trkpt lat="47.73045" lon="-3.38647">
        <ele>2.7185535430908</ele>
        <time>2011-11-04T11:35:21Z</time>
      </trkpt>
      <trkpt lat="47.73041" lon="-3.38672">
        <ele>2.4307012557983</ele>
        <time>2011-11-04T11:35:26Z</time>
      </trkpt>
      <trkpt lat="47.73033" lon="-3.38697">
        <ele>2.1261370182037</ele>
        <time>2011-11-04T11:35:32Z</time>
      </trkpt>
      <trkpt lat="47.73026" lon="-3.38715">
        <ele>1.8423479795456</ele>
        <time>2011-11-04T11:35:37Z</time>
      </trkpt>
      <trkpt lat="47.73016" lon="-3.38731">
        <ele>1.5522232055664</ele>
        <time>2011-11-04T11:35:42Z</time>
      </trkpt>
      <trkpt lat="47.73004" lon="-3.38746">
        <ele>1.1435830593109</ele>
        <time>2011-11-04T11:35:47Z</time>
      </trkpt>
      <trkpt lat="47.72996" lon="-3.38755">
        <ele>1.1842046976089</ele>
        <time>2011-11-04T11:35:51Z</time>
      </trkpt>
      <trkpt lat="47.72985" lon="-3.3877">
        <ele>1.5236622095108</ele>
        <time>2011-11-04T11:35:56Z</time>
      </trkpt>
      <trkpt lat="47.72968" lon="-3.38786">
        <ele>2.0228924751282</ele>
        <time>2011-11-04T11:36:02Z</time>
      </trkpt>
      <trkpt lat="47.72952" lon="-3.38788">
        <ele>2.6721334457398</ele>
        <time>2011-11-04T11:36:07Z</time>
      </trkpt>
      <trkpt lat="47.72932" lon="-3.38781">
        <ele>3.7899959087372</ele>
        <time>2011-11-04T11:36:13Z</time>
      </trkpt>
      <trkpt lat="47.7291" lon="-3.38768">
        <ele>5.2460699081421</ele>
        <time>2011-11-04T11:36:20Z</time>
      </trkpt>
      <trkpt lat="47.72898" lon="-3.3876">
        <ele>5.8056316375732</ele>
        <time>2011-11-04T11:36:24Z</time>
      </trkpt>
      <trkpt lat="47.72883" lon="-3.38751">
        <ele>6.3692150115967</ele>
        <time>2011-11-04T11:36:29Z</time>
      </trkpt>
      <trkpt lat="47.72867" lon="-3.38747">
        <ele>6.7066717147827</ele>
        <time>2011-11-04T11:36:34Z</time>
      </trkpt>
      <trkpt lat="47.72856" lon="-3.38741">
        <ele>7.0433502197266</ele>
        <time>2011-11-04T11:36:38Z</time>
      </trkpt>
      <trkpt lat="47.72839" lon="-3.38727">
        <ele>7.5385360717773</ele>
        <time>2011-11-04T11:36:44Z</time>
      </trkpt>
      <trkpt lat="47.72825" lon="-3.38717">
        <ele>7.4388346672058</ele>
        <time>2011-11-04T11:36:49Z</time>
      </trkpt>
      <trkpt lat="47.72817" lon="-3.38702">
        <ele>7.479395866394</ele>
        <time>2011-11-04T11:36:53Z</time>
      </trkpt>
      <trkpt lat="47.7281" lon="-3.38688">
        <ele>7.548520565033</ele>
        <time>2011-11-04T11:36:57Z</time>
      </trkpt>
      <trkpt lat="47.72797" lon="-3.38679">
        <ele>7.3195133209228</ele>
        <time>2011-11-04T11:37:02Z</time>
      </trkpt>
      <trkpt lat="47.72785" lon="-3.3867">
        <ele>7.1535515785217</ele>
        <time>2011-11-04T11:37:06Z</time>
      </trkpt>
      <trkpt lat="47.72767" lon="-3.38665">
        <ele>6.6326866149902</ele>
        <time>2011-11-04T11:37:12Z</time>
      </trkpt>
      <trkpt lat="47.72748" lon="-3.38674">
        <ele>5.784478187561</ele>
        <time>2011-11-04T11:37:18Z</time>
      </trkpt>
      <trkpt lat="47.72736" lon="-3.38684">
        <ele>5.6346845626831</ele>
        <time>2011-11-04T11:37:22Z</time>
      </trkpt>
      <trkpt lat="47.72725" lon="-3.38703">
        <ele>5.4005961418152</ele>
        <time>2011-11-04T11:37:27Z</time>
      </trkpt>
      <trkpt lat="47.72717" lon="-3.38718">
        <ele>5.2964563369751</ele>
        <time>2011-11-04T11:37:31Z</time>
      </trkpt>
      <trkpt lat="47.72712" lon="-3.3873">
        <ele>5.2206311225891</ele>
        <time>2011-11-04T11:37:34Z</time>
      </trkpt>
      <trkpt lat="47.72706" lon="-3.38745">
        <ele>5.1855711936951</ele>
        <time>2011-11-04T11:37:38Z</time>
      </trkpt>
      <trkpt lat="47.72693" lon="-3.38767">
        <ele>5.5065979957581</ele>
        <time>2011-11-04T11:37:44Z</time>
      </trkpt>
      <trkpt lat="47.72686" lon="-3.38778">
        <ele>5.6412267684936</ele>
        <time>2011-11-04T11:37:47Z</time>
      </trkpt>
      <trkpt lat="47.72676" lon="-3.38792">
        <ele>5.7199859619141</ele>
        <time>2011-11-04T11:37:51Z</time>
      </trkpt>
      <trkpt lat="47.72668" lon="-3.38808">
        <ele>5.5566749572754</ele>
        <time>2011-11-04T11:37:55Z</time>
      </trkpt>
      <trkpt lat="47.72659" lon="-3.38828">
        <ele>5.3006730079651</ele>
        <time>2011-11-04T11:37:59Z</time>
      </trkpt>
      <trkpt lat="47.72649" lon="-3.38842">
        <ele>5.6817631721497</ele>
        <time>2011-11-04T11:38:03Z</time>
      </trkpt>
      <trkpt lat="47.72646" lon="-3.38864">
        <ele>6.4323544502258</ele>
        <time>2011-11-04T11:38:08Z</time>
      </trkpt>
      <trkpt lat="47.72646" lon="-3.38873">
        <ele>6.6738181114197</ele>
        <time>2011-11-04T11:38:10Z</time>
      </trkpt>
      <trkpt lat="47.72652" lon="-3.38885">
        <ele>6.9874243736267</ele>
        <time>2011-11-04T11:38:14Z</time>
      </trkpt>
      <trkpt lat="47.72673" lon="-3.38898">
        <ele>7.3212504386902</ele>
        <time>2011-11-04T11:38:21Z</time>
      </trkpt>
      <trkpt lat="47.72686" lon="-3.38901">
        <ele>7.3857727050781</ele>
        <time>2011-11-04T11:38:25Z</time>
      </trkpt>
      <trkpt lat="47.72706" lon="-3.389">
        <ele>7.3167409896851</ele>
        <time>2011-11-04T11:38:29Z</time>
      </trkpt>
      <trkpt lat="47.72723" lon="-3.389">
        <ele>7.252824306488</ele>
        <time>2011-11-04T11:38:33Z</time>
      </trkpt>
      <trkpt lat="47.72735" lon="-3.38895">
        <ele>7.0253009796143</ele>
        <time>2011-11-04T11:38:36Z</time>
      </trkpt>
      <trkpt lat="47.72747" lon="-3.38893">
        <ele>6.8587856292725</ele>
        <time>2011-11-04T11:38:40Z</time>
      </trkpt>
      <trkpt lat="47.72759" lon="-3.38884">
        <ele>6.1635985374451</ele>
        <time>2011-11-04T11:38:45Z</time>
      </trkpt>
      <trkpt lat="47.72764" lon="-3.38881">
        <ele>5.8851156234741</ele>
        <time>2011-11-04T11:38:47Z</time>
      </trkpt>
      <trkpt lat="47.72779" lon="-3.38881">
        <ele>5.4505014419556</ele>
        <time>2011-11-04T11:38:52Z</time>
      </trkpt>
      <trkpt lat="47.72787" lon="-3.38881">
        <ele>5.2187757492065</ele>
        <time>2011-11-04T11:38:56Z</time>
      </trkpt>
      <trkpt lat="47.7279" lon="-3.38882">
        <ele>5.1286554336548</ele>
        <time>2011-11-04T11:38:58Z</time>
      </trkpt>
      <trkpt lat="47.72804" lon="-3.3887">
        <ele>4.6925592422485</ele>
        <time>2011-11-04T11:39:04Z</time>
      </trkpt>
      <trkpt lat="47.72815" lon="-3.38864">
        <ele>4.525342464447</ele>
        <time>2011-11-04T11:39:08Z</time>
      </trkpt>
      <trkpt lat="47.72828" lon="-3.38857">
        <ele>4.4859580993652</ele>
        <time>2011-11-04T11:39:12Z</time>
      </trkpt>
      <trkpt lat="47.72852" lon="-3.38847">
        <ele>4.0415725708008</ele>
        <time>2011-11-04T11:39:17Z</time>
      </trkpt>
      <trkpt lat="47.72868" lon="-3.38843">
        <ele>3.574690580368</ele>
        <time>2011-11-04T11:39:22Z</time>
      </trkpt>
      <trkpt lat="47.72878" lon="-3.38843">
        <ele>3.2081863880158</ele>
        <time>2011-11-04T11:39:25Z</time>
      </trkpt>
      <trkpt lat="47.72884" lon="-3.38853">
        <ele>2.8542511463165</ele>
        <time>2011-11-04T11:39:28Z</time>
      </trkpt>
      <trkpt lat="47.72888" lon="-3.3887">
        <ele>2.4349865913391</ele>
        <time>2011-11-04T11:39:32Z</time>
      </trkpt>
      <trkpt lat="47.72885" lon="-3.38895">
        <ele>2.1162266731262</ele>
        <time>2011-11-04T11:39:37Z</time>
      </trkpt>
      <trkpt lat="47.72882" lon="-3.38923">
        <ele>1.9356187582016</ele>
        <time>2011-11-04T11:39:42Z</time>
      </trkpt>
      <trkpt lat="47.72878" lon="-3.38944">
        <ele>2.4077668190002</ele>
        <time>2011-11-04T11:39:46Z</time>
      </trkpt>
      <trkpt lat="47.72874" lon="-3.38964">
        <ele>2.8978111743927</ele>
        <time>2011-11-04T11:39:50Z</time>
      </trkpt>
      <trkpt lat="47.72872" lon="-3.38977">
        <ele>3.1873378753662</ele>
        <time>2011-11-04T11:39:53Z</time>
      </trkpt>
      <trkpt lat="47.72869" lon="-3.38998">
        <ele>3.6617591381073</ele>
        <time>2011-11-04T11:39:58Z</time>
      </trkpt>
      <trkpt lat="47.72869" lon="-3.39015">
        <ele>4.423611164093</ele>
        <time>2011-11-04T11:40:02Z</time>
      </trkpt>
      <trkpt lat="47.72876" lon="-3.39028">
        <ele>4.6134595870972</ele>
        <time>2011-11-04T11:40:07Z</time>
      </trkpt>
      <trkpt lat="47.72889" lon="-3.39033">
        <ele>4.0520367622375</ele>
        <time>2011-11-04T11:40:11Z</time>
      </trkpt>
      <trkpt lat="47.729" lon="-3.39038">
        <ele>3.4926812648773</ele>
        <time>2011-11-04T11:40:14Z</time>
      </trkpt>
      <trkpt lat="47.72917" lon="-3.39057">
        <ele>2.6635479927063</ele>
        <time>2011-11-04T11:40:20Z</time>
      </trkpt>
      <trkpt lat="47.72929" lon="-3.39078">
        <ele>2.4989757537842</ele>
        <time>2011-11-04T11:40:25Z</time>
      </trkpt>
      <trkpt lat="47.72931" lon="-3.39101">
        <ele>2.6635944843292</ele>
        <time>2011-11-04T11:40:30Z</time>
      </trkpt>
      <trkpt lat="47.72928" lon="-3.39109">
        <ele>2.859265089035</ele>
        <time>2011-11-04T11:40:32Z</time>
      </trkpt>
      <trkpt lat="47.72919" lon="-3.39126">
        <ele>3.4142417907715</ele>
        <time>2011-11-04T11:40:37Z</time>
      </trkpt>
      <trkpt lat="47.72913" lon="-3.39143">
        <ele>4.0688300132752</ele>
        <time>2011-11-04T11:40:41Z</time>
      </trkpt>
      <trkpt lat="47.72904" lon="-3.39159">
        <ele>4.9666843414307</ele>
        <time>2011-11-04T11:40:45Z</time>
      </trkpt>
      <trkpt lat="47.72894" lon="-3.39175">
        <ele>5.9171991348267</ele>
        <time>2011-11-04T11:40:50Z</time>
      </trkpt>
      <trkpt lat="47.72888" lon="-3.39191">
        <ele>6.2928400039673</ele>
        <time>2011-11-04T11:40:54Z</time>
      </trkpt>
      <trkpt lat="47.72883" lon="-3.39206">
        <ele>6.6216583251953</ele>
        <time>2011-11-04T11:40:58Z</time>
      </trkpt>
      <trkpt lat="47.72876" lon="-3.39224">
        <ele>7.0517258644104</ele>
        <time>2011-11-04T11:41:02Z</time>
      </trkpt>
      <trkpt lat="47.72867" lon="-3.39236">
        <ele>7.6892042160034</ele>
        <time>2011-11-04T11:41:06Z</time>
      </trkpt>
      <trkpt lat="47.72859" lon="-3.39241">
        <ele>8.2405977249146</ele>
        <time>2011-11-04T11:41:09Z</time>
      </trkpt>
      <trkpt lat="47.7285" lon="-3.39261">
        <ele>8.9810771942139</ele>
        <time>2011-11-04T11:41:14Z</time>
      </trkpt>
      <trkpt lat="47.7285" lon="-3.39281">
        <ele>9.2763423919678</ele>
        <time>2011-11-04T11:41:18Z</time>
      </trkpt>
      <trkpt lat="47.7285" lon="-3.39286">
        <ele>9.2955436706543</ele>
        <time>2011-11-04T11:41:19Z</time>
      </trkpt>
      <trkpt lat="47.72858" lon="-3.393">
        <ele>8.998348236084</ele>
        <time>2011-11-04T11:41:23Z</time>
      </trkpt>
      <trkpt lat="47.72865" lon="-3.39313">
        <ele>8.7983112335205</ele>
        <time>2011-11-04T11:41:27Z</time>
      </trkpt>
      <trkpt lat="47.72869" lon="-3.39318">
        <ele>8.5750999450684</ele>
        <time>2011-11-04T11:41:29Z</time>
      </trkpt>
      <trkpt lat="47.72887" lon="-3.39333">
        <ele>7.7613825798035</ele>
        <time>2011-11-04T11:41:35Z</time>
      </trkpt>
      <trkpt lat="47.72903" lon="-3.39346">
        <ele>7.4043407440186</ele>
        <time>2011-11-04T11:41:41Z</time>
      </trkpt>
      <trkpt lat="47.72911" lon="-3.3936">
        <ele>7.5569534301758</ele>
        <time>2011-11-04T11:41:45Z</time>
      </trkpt>
      <trkpt lat="47.72917" lon="-3.39384">
        <ele>8.3771705627441</ele>
        <time>2011-11-04T11:41:50Z</time>
      </trkpt>
      <trkpt lat="47.72923" lon="-3.39394">
        <ele>8.4223041534424</ele>
        <time>2011-11-04T11:41:53Z</time>
      </trkpt>
      <trkpt lat="47.72938" lon="-3.39419">
        <ele>8.2440567016602</ele>
        <time>2011-11-04T11:41:59Z</time>
      </trkpt>
      <trkpt lat="47.72945" lon="-3.39433">
        <ele>7.7501463890076</ele>
        <time>2011-11-04T11:42:03Z</time>
      </trkpt>
      <trkpt lat="47.72954" lon="-3.39452">
        <ele>7.2589831352234</ele>
        <time>2011-11-04T11:42:08Z</time>
      </trkpt>
      <trkpt lat="47.72956" lon="-3.39472">
        <ele>7.2919607162476</ele>
        <time>2011-11-04T11:42:12Z</time>
      </trkpt>
      <trkpt lat="47.72959" lon="-3.39479">
        <ele>7.2240834236145</ele>
        <time>2011-11-04T11:42:14Z</time>
      </trkpt>
      <trkpt lat="47.72968" lon="-3.39496">
        <ele>6.8714904785156</ele>
        <time>2011-11-04T11:42:18Z</time>
      </trkpt>
      <trkpt lat="47.72971" lon="-3.395">
        <ele>6.7639408111572</ele>
        <time>2011-11-04T11:42:19Z</time>
      </trkpt>
      <trkpt lat="47.72979" lon="-3.39515">
        <ele>6.1689171791077</ele>
        <time>2011-11-04T11:42:23Z</time>
      </trkpt>
      <trkpt lat="47.72987" lon="-3.39531">
        <ele>5.685631275177</ele>
        <time>2011-11-04T11:42:27Z</time>
      </trkpt>
      <trkpt lat="47.7299" lon="-3.39547">
        <ele>5.4793701171875</ele>
        <time>2011-11-04T11:42:31Z</time>
      </trkpt>
      <trkpt lat="47.73001" lon="-3.39558">
        <ele>4.9569702148438</ele>
        <time>2011-11-04T11:42:35Z</time>
      </trkpt>
      <trkpt lat="47.73007" lon="-3.39561">
        <ele>4.56787109375</ele>
        <time>2011-11-04T11:42:37Z</time>
      </trkpt>
      <trkpt lat="47.73024" lon="-3.39569">
        <ele>3.5379028320312</ele>
        <time>2011-11-04T11:42:42Z</time>
      </trkpt>
      <trkpt lat="47.73033" lon="-3.39586">
        <ele>3.0268001556397</ele>
        <time>2011-11-04T11:42:46Z</time>
      </trkpt>
      <trkpt lat="47.73031" lon="-3.39608">
        <ele>3.0723512172699</ele>
        <time>2011-11-04T11:42:50Z</time>
      </trkpt>
      <trkpt lat="47.7303" lon="-3.39629">
        <ele>3.0437376499176</ele>
        <time>2011-11-04T11:42:54Z</time>
      </trkpt>
      <trkpt lat="47.73033" lon="-3.39645">
        <ele>2.8608870506287</ele>
        <time>2011-11-04T11:42:58Z</time>
      </trkpt>
      <trkpt lat="47.73036" lon="-3.39668">
        <ele>2.7160849571228</ele>
        <time>2011-11-04T11:43:03Z</time>
      </trkpt>
      <trkpt lat="47.73036" lon="-3.39688">
        <ele>2.7750718593597</ele>
        <time>2011-11-04T11:43:07Z</time>
      </trkpt>
      <trkpt lat="47.73038" lon="-3.39709">
        <ele>2.8240950107574</ele>
        <time>2011-11-04T11:43:11Z</time>
      </trkpt>
      <trkpt lat="47.7305" lon="-3.39718">
        <ele>2.6941175460815</ele>
        <time>2011-11-04T11:43:15Z</time>
      </trkpt>
      <trkpt lat="47.73059" lon="-3.39724">
        <ele>2.6430220603943</ele>
        <time>2011-11-04T11:43:18Z</time>
      </trkpt>
      <trkpt lat="47.73068" lon="-3.39738">
        <ele>2.7983741760254</ele>
        <time>2011-11-04T11:43:22Z</time>
      </trkpt>
      <trkpt lat="47.73072" lon="-3.39744">
        <ele>2.8910865783691</ele>
        <time>2011-11-04T11:43:24Z</time>
      </trkpt>
      <trkpt lat="47.73082" lon="-3.39754">
        <ele>3.2685308456421</ele>
        <time>2011-11-04T11:43:28Z</time>
      </trkpt>
      <trkpt lat="47.73096" lon="-3.3976">
        <ele>3.0524892807007</ele>
        <time>2011-11-04T11:43:34Z</time>
      </trkpt>
      <trkpt lat="47.73112" lon="-3.39768">
        <ele>2.7710189819336</ele>
        <time>2011-11-04T11:43:39Z</time>
      </trkpt>
      <trkpt lat="47.73116" lon="-3.39771">
        <ele>2.676619052887</ele>
        <time>2011-11-04T11:43:41Z</time>
      </trkpt>
      <trkpt lat="47.73123" lon="-3.39791">
        <ele>3.0758798122406</ele>
        <time>2011-11-04T11:43:46Z</time>
      </trkpt>
      <trkpt lat="47.73129" lon="-3.39812">
        <ele>3.4165706634522</ele>
        <time>2011-11-04T11:43:51Z</time>
      </trkpt>
      <trkpt lat="47.7313" lon="-3.39833">
        <ele>4.0859580039978</ele>
        <time>2011-11-04T11:43:55Z</time>
      </trkpt>
      <trkpt lat="47.73133" lon="-3.39849">
        <ele>5.0018525123596</ele>
        <time>2011-11-04T11:43:59Z</time>
      </trkpt>
      <trkpt lat="47.73138" lon="-3.39869">
        <ele>6.2172698974609</ele>
        <time>2011-11-04T11:44:03Z</time>
      </trkpt>
      <trkpt lat="47.73143" lon="-3.39885">
        <ele>7.2243704795837</ele>
        <time>2011-11-04T11:44:07Z</time>
      </trkpt>
      <trkpt lat="47.73151" lon="-3.39896">
        <ele>7.7994575500488</ele>
        <time>2011-11-04T11:44:10Z</time>
      </trkpt>
      <trkpt lat="47.73153" lon="-3.39914">
        <ele>9.231237411499</ele>
        <time>2011-11-04T11:44:15Z</time>
      </trkpt>
      <trkpt lat="47.73156" lon="-3.39927">
        <ele>9.5443611145019</ele>
        <time>2011-11-04T11:44:18Z</time>
      </trkpt>
      <trkpt lat="47.73164" lon="-3.39951">
        <ele>9.504545211792</ele>
        <time>2011-11-04T11:44:23Z</time>
      </trkpt>
      <trkpt lat="47.73166" lon="-3.39967">
        <ele>9.6581449508667</ele>
        <time>2011-11-04T11:44:27Z</time>
      </trkpt>
      <trkpt lat="47.73168" lon="-3.39983">
        <ele>9.7391052246094</ele>
        <time>2011-11-04T11:44:31Z</time>
      </trkpt>
      <trkpt lat="47.73168" lon="-3.40001">
        <ele>9.9416847229004</ele>
        <time>2011-11-04T11:44:35Z</time>
      </trkpt>
      <trkpt lat="47.73169" lon="-3.4002">
        <ele>10.106464385986</ele>
        <time>2011-11-04T11:44:39Z</time>
      </trkpt>
      <trkpt lat="47.73167" lon="-3.40041">
        <ele>10.494475364685</ele>
        <time>2011-11-04T11:44:44Z</time>
      </trkpt>
      <trkpt lat="47.73166" lon="-3.40066">
        <ele>10.80996799469</ele>
        <time>2011-11-04T11:44:49Z</time>
      </trkpt>
      <trkpt lat="47.73168" lon="-3.40085">
        <ele>10.927293777466</ele>
        <time>2011-11-04T11:44:54Z</time>
      </trkpt>
      <trkpt lat="47.73168" lon="-3.40102">
        <ele>11.123864173889</ele>
        <time>2011-11-04T11:44:58Z</time>
      </trkpt>
      <trkpt lat="47.73169" lon="-3.4014">
        <ele>11.511063575745</ele>
        <time>2011-11-04T11:45:05Z</time>
      </trkpt>
      <trkpt lat="47.73171" lon="-3.40161">
        <ele>11.560262680054</ele>
        <time>2011-11-04T11:45:10Z</time>
      </trkpt>
      <trkpt lat="47.7317" lon="-3.40185">
        <ele>11.776539802551</ele>
        <time>2011-11-04T11:45:15Z</time>
      </trkpt>
      <trkpt lat="47.73173" lon="-3.40205">
        <ele>11.599975585938</ele>
        <time>2011-11-04T11:45:19Z</time>
      </trkpt>
      <trkpt lat="47.73174" lon="-3.4021">
        <ele>11.571824073792</ele>
        <time>2011-11-04T11:45:20Z</time>
      </trkpt>
      <trkpt lat="47.73188" lon="-3.40224">
        <ele>10.913653373718</ele>
        <time>2011-11-04T11:45:26Z</time>
      </trkpt>
      <trkpt lat="47.73191" lon="-3.40227">
        <ele>10.795586585998</ele>
        <time>2011-11-04T11:45:27Z</time>
      </trkpt>
      <trkpt lat="47.73212" lon="-3.40243">
        <ele>10.183932304382</ele>
        <time>2011-11-04T11:45:33Z</time>
      </trkpt>
      <trkpt lat="47.73225" lon="-3.40249">
        <ele>9.8732986450195</ele>
        <time>2011-11-04T11:45:37Z</time>
      </trkpt>
      <trkpt lat="47.73243" lon="-3.4026">
        <ele>9.6337051391602</ele>
        <time>2011-11-04T11:45:42Z</time>
      </trkpt>
      <trkpt lat="47.73257" lon="-3.40263">
        <ele>9.1664342880249</ele>
        <time>2011-11-04T11:45:46Z</time>
      </trkpt>
      <trkpt lat="47.73271" lon="-3.40272">
        <ele>8.8346014022827</ele>
        <time>2011-11-04T11:45:50Z</time>
      </trkpt>
      <trkpt lat="47.73274" lon="-3.40274">
        <ele>8.7471590042114</ele>
        <time>2011-11-04T11:45:51Z</time>
      </trkpt>
      <trkpt lat="47.73286" lon="-3.40291">
        <ele>8.5159330368042</ele>
        <time>2011-11-04T11:45:56Z</time>
      </trkpt>
      <trkpt lat="47.7329" lon="-3.40297">
        <ele>8.4204292297363</ele>
        <time>2011-11-04T11:45:58Z</time>
      </trkpt>
      <trkpt lat="47.73304" lon="-3.40313">
        <ele>7.860454082489</ele>
        <time>2011-11-04T11:46:04Z</time>
      </trkpt>
      <trkpt lat="47.73312" lon="-3.40329">
        <ele>7.4659214019775</ele>
        <time>2011-11-04T11:46:09Z</time>
      </trkpt>
      <trkpt lat="47.73315" lon="-3.40353">
        <ele>8.0011215209961</ele>
        <time>2011-11-04T11:46:14Z</time>
      </trkpt>
      <trkpt lat="47.73314" lon="-3.4037">
        <ele>8.6516485214233</ele>
        <time>2011-11-04T11:46:18Z</time>
      </trkpt>
      <trkpt lat="47.73312" lon="-3.40392">
        <ele>9.484977722168</ele>
        <time>2011-11-04T11:46:23Z</time>
      </trkpt>
      <trkpt lat="47.73309" lon="-3.40411">
        <ele>10.25664806366</ele>
        <time>2011-11-04T11:46:27Z</time>
      </trkpt>
      <trkpt lat="47.73302" lon="-3.40427">
        <ele>11.160548210144</ele>
        <time>2011-11-04T11:46:31Z</time>
      </trkpt>
      <trkpt lat="47.73297" lon="-3.40441">
        <ele>11.816806793213</ele>
        <time>2011-11-04T11:46:35Z</time>
      </trkpt>
      <trkpt lat="47.73297" lon="-3.40444">
        <ele>11.898147583008</ele>
        <time>2011-11-04T11:46:36Z</time>
      </trkpt>
      <trkpt lat="47.73302" lon="-3.4047">
        <ele>12.305418014526</ele>
        <time>2011-11-04T11:46:42Z</time>
      </trkpt>
      <trkpt lat="47.73308" lon="-3.40484">
        <ele>12.439848899841</ele>
        <time>2011-11-04T11:46:46Z</time>
      </trkpt>
      <trkpt lat="47.73319" lon="-3.40493">
        <ele>12.290064811707</ele>
        <time>2011-11-04T11:46:50Z</time>
      </trkpt>
      <trkpt lat="47.73326" lon="-3.4051">
        <ele>12.664202690124</ele>
        <time>2011-11-04T11:46:54Z</time>
      </trkpt>
      <trkpt lat="47.73331" lon="-3.40533">
        <ele>13.275344848633</ele>
        <time>2011-11-04T11:46:59Z</time>
      </trkpt>
      <trkpt lat="47.73333" lon="-3.40558">
        <ele>14.099553108215</ele>
        <time>2011-11-04T11:47:04Z</time>
      </trkpt>
      <trkpt lat="47.73338" lon="-3.4057">
        <ele>14.409068107605</ele>
        <time>2011-11-04T11:47:08Z</time>
      </trkpt>
      <trkpt lat="47.73348" lon="-3.40578">
        <ele>14.439548492432</ele>
        <time>2011-11-04T11:47:12Z</time>
      </trkpt>
      <trkpt lat="47.73363" lon="-3.40584">
        <ele>14.308982849121</ele>
        <time>2011-11-04T11:47:16Z</time>
      </trkpt>
      <trkpt lat="47.73386" lon="-3.40599">
        <ele>14.249990463257</ele>
        <time>2011-11-04T11:47:22Z</time>
      </trkpt>
      <trkpt lat="47.734" lon="-3.40614">
        <ele>14.427380561829</ele>
        <time>2011-11-04T11:47:27Z</time>
      </trkpt>
      <trkpt lat="47.73405" lon="-3.40627">
        <ele>14.765126228332</ele>
        <time>2011-11-04T11:47:30Z</time>
      </trkpt>
      <trkpt lat="47.73407" lon="-3.40637">
        <ele>15.08807182312</ele>
        <time>2011-11-04T11:47:33Z</time>
      </trkpt>
      <trkpt lat="47.73416" lon="-3.40629">
        <ele>14.641421318054</ele>
        <time>2011-11-04T11:47:37Z</time>
      </trkpt>
      <trkpt lat="47.7342" lon="-3.40624">
        <ele>14.369953155518</ele>
        <time>2011-11-04T11:47:38Z</time>
      </trkpt>
      <trkpt lat="47.73438" lon="-3.40606">
        <ele>13.125160217285</ele>
        <time>2011-11-04T11:47:43Z</time>
      </trkpt>
      <trkpt lat="47.73447" lon="-3.40599">
        <ele>12.532603263855</ele>
        <time>2011-11-04T11:47:46Z</time>
      </trkpt>
      <trkpt lat="47.73456" lon="-3.40603">
        <ele>12.405453681946</ele>
        <time>2011-11-04T11:47:49Z</time>
      </trkpt>
      <trkpt lat="47.73464" lon="-3.40622">
        <ele>12.941509246826</ele>
        <time>2011-11-04T11:47:55Z</time>
      </trkpt>
      <trkpt lat="47.7348" lon="-3.40633">
        <ele>12.946620941162</ele>
        <time>2011-11-04T11:48:00Z</time>
      </trkpt>
      <trkpt lat="47.73492" lon="-3.4064">
        <ele>12.942277908325</ele>
        <time>2011-11-04T11:48:04Z</time>
      </trkpt>
      <trkpt lat="47.73503" lon="-3.40653">
        <ele>13.089542388916</ele>
        <time>2011-11-04T11:48:09Z</time>
      </trkpt>
      <trkpt lat="47.73512" lon="-3.40671">
        <ele>13.239140510559</ele>
        <time>2011-11-04T11:48:14Z</time>
      </trkpt>
      <trkpt lat="47.73517" lon="-3.40692">
        <ele>14.351369857788</ele>
        <time>2011-11-04T11:48:19Z</time>
      </trkpt>
      <trkpt lat="47.73524" lon="-3.4071">
        <ele>15.146924972534</ele>
        <time>2011-11-04T11:48:24Z</time>
      </trkpt>
      <trkpt lat="47.73525" lon="-3.40725">
        <ele>16.204364776611</ele>
        <time>2011-11-04T11:48:27Z</time>
      </trkpt>
      <trkpt lat="47.73527" lon="-3.40739">
        <ele>17.174343109131</ele>
        <time>2011-11-04T11:48:30Z</time>
      </trkpt>
      <trkpt lat="47.73541" lon="-3.40748">
        <ele>16.821544647217</ele>
        <time>2011-11-04T11:48:35Z</time>
      </trkpt>
      <trkpt lat="47.73561" lon="-3.40761">
        <ele>16.784130096436</ele>
        <time>2011-11-04T11:48:41Z</time>
      </trkpt>
      <trkpt lat="47.73578" lon="-3.40774">
        <ele>16.962657928467</ele>
        <time>2011-11-04T11:48:46Z</time>
      </trkpt>
      <trkpt lat="47.7359" lon="-3.40791">
        <ele>17.990966796875</ele>
        <time>2011-11-04T11:48:51Z</time>
      </trkpt>
      <trkpt lat="47.73591" lon="-3.40811">
        <ele>19.853443145752</ele>
        <time>2011-11-04T11:48:55Z</time>
      </trkpt>
      <trkpt lat="47.73594" lon="-3.40831">
        <ele>21.36088180542</ele>
        <time>2011-11-04T11:48:59Z</time>
      </trkpt>
      <trkpt lat="47.73597" lon="-3.40841">
        <ele>21.798400878906</ele>
        <time>2011-11-04T11:49:02Z</time>
      </trkpt>
      <trkpt lat="47.73598" lon="-3.40869">
        <ele>23.450977325439</ele>
        <time>2011-11-04T11:49:08Z</time>
      </trkpt>
      <trkpt lat="47.73596" lon="-3.40893">
        <ele>25.402637481689</ele>
        <time>2011-11-04T11:49:13Z</time>
      </trkpt>
      <trkpt lat="47.73595" lon="-3.40902">
        <ele>26.08501625061</ele>
        <time>2011-11-04T11:49:15Z</time>
      </trkpt>
      <trkpt lat="47.73603" lon="-3.40927">
        <ele>26.111976623535</ele>
        <time>2011-11-04T11:49:21Z</time>
      </trkpt>
      <trkpt lat="47.73609" lon="-3.4095">
        <ele>25.365249633789</ele>
        <time>2011-11-04T11:49:26Z</time>
      </trkpt>
      <trkpt lat="47.73616" lon="-3.40972">
        <ele>24.627391815186</ele>
        <time>2011-11-04T11:49:31Z</time>
      </trkpt>
      <trkpt lat="47.73619" lon="-3.4099">
        <ele>24.29923248291</ele>
        <time>2011-11-04T11:49:35Z</time>
      </trkpt>
      <trkpt lat="47.73622" lon="-3.41011">
        <ele>23.24952507019</ele>
        <time>2011-11-04T11:49:40Z</time>
      </trkpt>
      <trkpt lat="47.73621" lon="-3.4103">
        <ele>22.063234329224</ele>
        <time>2011-11-04T11:49:44Z</time>
      </trkpt>
      <trkpt lat="47.73621" lon="-3.41057">
        <ele>20.281976699829</ele>
        <time>2011-11-04T11:49:49Z</time>
      </trkpt>
      <trkpt lat="47.73621" lon="-3.41067">
        <ele>19.576293945312</ele>
        <time>2011-11-04T11:49:51Z</time>
      </trkpt>
      <trkpt lat="47.73615" lon="-3.41095">
        <ele>18.481931686401</ele>
        <time>2011-11-04T11:49:57Z</time>
      </trkpt>
      <trkpt lat="47.73611" lon="-3.41115">
        <ele>17.65708732605</ele>
        <time>2011-11-04T11:50:01Z</time>
      </trkpt>
      <trkpt lat="47.73612" lon="-3.41134">
        <ele>16.384120941162</ele>
        <time>2011-11-04T11:50:05Z</time>
      </trkpt>
      <trkpt lat="47.73627" lon="-3.41142">
        <ele>15.116976737976</ele>
        <time>2011-11-04T11:50:10Z</time>
      </trkpt>
      <trkpt lat="47.73639" lon="-3.41139">
        <ele>14.522196769714</ele>
        <time>2011-11-04T11:50:13Z</time>
      </trkpt>
      <trkpt lat="47.73649" lon="-3.41145">
        <ele>13.869344711304</ele>
        <time>2011-11-04T11:50:16Z</time>
      </trkpt>
      <trkpt lat="47.7366" lon="-3.41172">
        <ele>13.383387565613</ele>
        <time>2011-11-04T11:50:22Z</time>
      </trkpt>
      <trkpt lat="47.73665" lon="-3.41188">
        <ele>13.824859619141</ele>
        <time>2011-11-04T11:50:26Z</time>
      </trkpt>
      <trkpt lat="47.73666" lon="-3.41207">
        <ele>14.482500076294</ele>
        <time>2011-11-04T11:50:30Z</time>
      </trkpt>
      <trkpt lat="47.73671" lon="-3.41222">
        <ele>14.904047012329</ele>
        <time>2011-11-04T11:50:34Z</time>
      </trkpt>
      <trkpt lat="47.7368" lon="-3.41228">
        <ele>14.915170669556</ele>
        <time>2011-11-04T11:50:39Z</time>
      </trkpt>
      <trkpt lat="47.73681" lon="-3.41227">
        <ele>14.853199958801</ele>
        <time>2011-11-04T11:50:40Z</time>
      </trkpt>
      <trkpt lat="47.73691" lon="-3.41219">
        <ele>14.266993522644</ele>
        <time>2011-11-04T11:50:45Z</time>
      </trkpt>
      <trkpt lat="47.737" lon="-3.41215">
        <ele>13.834029197693</ele>
        <time>2011-11-04T11:50:48Z</time>
      </trkpt>
      <trkpt lat="47.73722" lon="-3.41214">
        <ele>13.206715583801</ele>
        <time>2011-11-04T11:50:54Z</time>
      </trkpt>
      <trkpt lat="47.73739" lon="-3.41217">
        <ele>12.894757270813</ele>
        <time>2011-11-04T11:50:59Z</time>
      </trkpt>
      <trkpt lat="47.73758" lon="-3.41221">
        <ele>13.225509643555</ele>
        <time>2011-11-04T11:51:04Z</time>
      </trkpt>
      <trkpt lat="47.73769" lon="-3.41228">
        <ele>14.13579750061</ele>
        <time>2011-11-04T11:51:08Z</time>
      </trkpt>
      <trkpt lat="47.73782" lon="-3.41241">
        <ele>15.563431739807</ele>
        <time>2011-11-04T11:51:13Z</time>
      </trkpt>
      <trkpt lat="47.73795" lon="-3.4126">
        <ele>17.092807769775</ele>
        <time>2011-11-04T11:51:18Z</time>
      </trkpt>
      <trkpt lat="47.738" lon="-3.41297">
        <ele>18.851634979248</ele>
        <time>2011-11-04T11:51:25Z</time>
      </trkpt>
      <trkpt lat="47.73801" lon="-3.41306">
        <ele>19.233406066894</ele>
        <time>2011-11-04T11:51:27Z</time>
      </trkpt>
      <trkpt lat="47.73812" lon="-3.41326">
        <ele>19.994205474854</ele>
        <time>2011-11-04T11:51:32Z</time>
      </trkpt>
      <trkpt lat="47.73815" lon="-3.4133">
        <ele>20.098941802979</ele>
        <time>2011-11-04T11:51:33Z</time>
      </trkpt>
      <trkpt lat="47.73824" lon="-3.4135">
        <ele>21.243421554565</ele>
        <time>2011-11-04T11:51:38Z</time>
      </trkpt>
      <trkpt lat="47.73827" lon="-3.4137">
        <ele>22.623699188232</ele>
        <time>2011-11-04T11:51:42Z</time>
      </trkpt>
      <trkpt lat="47.73827" lon="-3.41393">
        <ele>24.281373977661</ele>
        <time>2011-11-04T11:51:47Z</time>
      </trkpt>
      <trkpt lat="47.73827" lon="-3.41397">
        <ele>24.532936096191</ele>
        <time>2011-11-04T11:51:48Z</time>
      </trkpt>
      <trkpt lat="47.7383" lon="-3.41422">
        <ele>26.022512435913</ele>
        <time>2011-11-04T11:51:55Z</time>
      </trkpt>
      <trkpt lat="47.73841" lon="-3.41437">
        <ele>25.305753707886</ele>
        <time>2011-11-04T11:52:01Z</time>
      </trkpt>
      <trkpt lat="47.7385" lon="-3.41441">
        <ele>24.306692123413</ele>
        <time>2011-11-04T11:52:05Z</time>
      </trkpt>
      <trkpt lat="47.73871" lon="-3.41441">
        <ele>21.832349777222</ele>
        <time>2011-11-04T11:52:11Z</time>
      </trkpt>
      <trkpt lat="47.73874" lon="-3.41442">
        <ele>21.582874298096</ele>
        <time>2011-11-04T11:52:12Z</time>
      </trkpt>
      <trkpt lat="47.73896" lon="-3.41433">
        <ele>18.463567733765</ele>
        <time>2011-11-04T11:52:18Z</time>
      </trkpt>
      <trkpt lat="47.73906" lon="-3.4142">
        <ele>16.583511352539</ele>
        <time>2011-11-04T11:52:21Z</time>
      </trkpt>
      <trkpt lat="47.73912" lon="-3.41391">
        <ele>13.400298118591</ele>
        <time>2011-11-04T11:52:26Z</time>
      </trkpt>
      <trkpt lat="47.73912" lon="-3.41387">
        <ele>13.050379753113</ele>
        <time>2011-11-04T11:52:27Z</time>
      </trkpt>
      <trkpt lat="47.73912" lon="-3.41364">
        <ele>11.230764389038</ele>
        <time>2011-11-04T11:52:32Z</time>
      </trkpt>
      <trkpt lat="47.73914" lon="-3.41333">
        <ele>8.3267278671265</ele>
        <time>2011-11-04T11:52:38Z</time>
      </trkpt>
      <trkpt lat="47.73918" lon="-3.41307">
        <ele>7.6868171691894</ele>
        <time>2011-11-04T11:52:43Z</time>
      </trkpt>
      <trkpt lat="47.73922" lon="-3.41283">
        <ele>7.3944206237793</ele>
        <time>2011-11-04T11:52:48Z</time>
      </trkpt>
      <trkpt lat="47.73932" lon="-3.41263">
        <ele>7.1618194580078</ele>
        <time>2011-11-04T11:52:53Z</time>
      </trkpt>
      <trkpt lat="47.7393" lon="-3.41243">
        <ele>7.1069655418396</ele>
        <time>2011-11-04T11:52:57Z</time>
      </trkpt>
      <trkpt lat="47.73924" lon="-3.4122">
        <ele>7.4233136177063</ele>
        <time>2011-11-04T11:53:01Z</time>
      </trkpt>
      <trkpt lat="47.73918" lon="-3.41202">
        <ele>7.5892415046692</ele>
        <time>2011-11-04T11:53:05Z</time>
      </trkpt>
      <trkpt lat="47.73913" lon="-3.41185">
        <ele>8.0467023849487</ele>
        <time>2011-11-04T11:53:09Z</time>
      </trkpt>
      <trkpt lat="47.73909" lon="-3.4116">
        <ele>8.46861743927</ele>
        <time>2011-11-04T11:53:14Z</time>
      </trkpt>
      <trkpt lat="47.73906" lon="-3.41137">
        <ele>8.6677989959717</ele>
        <time>2011-11-04T11:53:19Z</time>
      </trkpt>
      <trkpt lat="47.73898" lon="-3.41125">
        <ele>8.8404998779297</ele>
        <time>2011-11-04T11:53:23Z</time>
      </trkpt>
      <trkpt lat="47.73895" lon="-3.41122">
        <ele>8.8627920150757</ele>
        <time>2011-11-04T11:53:24Z</time>
      </trkpt>
      <trkpt lat="47.73888" lon="-3.411">
        <ele>8.5917625427246</ele>
        <time>2011-11-04T11:53:29Z</time>
      </trkpt>
      <trkpt lat="47.73883" lon="-3.41081">
        <ele>8.3088264465332</ele>
        <time>2011-11-04T11:53:33Z</time>
      </trkpt>
      <trkpt lat="47.73866" lon="-3.41056">
        <ele>9.5472593307495</ele>
        <time>2011-11-04T11:53:40Z</time>
      </trkpt>
      <trkpt lat="47.73853" lon="-3.41035">
        <ele>10.502709388733</ele>
        <time>2011-11-04T11:53:46Z</time>
      </trkpt>
      <trkpt lat="47.73842" lon="-3.41023">
        <ele>10.916650772095</ele>
        <time>2011-11-04T11:53:50Z</time>
      </trkpt>
      <trkpt lat="47.73825" lon="-3.41004">
        <ele>11.976751327515</ele>
        <time>2011-11-04T11:53:56Z</time>
      </trkpt>
      <trkpt lat="47.73815" lon="-3.40992">
        <ele>12.64909362793</ele>
        <time>2011-11-04T11:54:00Z</time>
      </trkpt>
      <trkpt lat="47.73804" lon="-3.40983">
        <ele>13.018597602844</ele>
        <time>2011-11-04T11:54:04Z</time>
      </trkpt>
      <trkpt lat="47.73791" lon="-3.40975">
        <ele>13.308864593506</ele>
        <time>2011-11-04T11:54:08Z</time>
      </trkpt>
      <trkpt lat="47.73779" lon="-3.40967">
        <ele>13.4594373703</ele>
        <time>2011-11-04T11:54:12Z</time>
      </trkpt>
      <trkpt lat="47.73767" lon="-3.40953">
        <ele>13.487609863281</ele>
        <time>2011-11-04T11:54:16Z</time>
      </trkpt>
      <trkpt lat="47.7375" lon="-3.40943">
        <ele>13.323519706726</ele>
        <time>2011-11-04T11:54:21Z</time>
      </trkpt>
      <trkpt lat="47.73738" lon="-3.40932">
        <ele>13.620330810547</ele>
        <time>2011-11-04T11:54:25Z</time>
      </trkpt>
      <trkpt lat="47.73722" lon="-3.40916">
        <ele>14.008791923523</ele>
        <time>2011-11-04T11:54:30Z</time>
      </trkpt>
      <trkpt lat="47.73706" lon="-3.409">
        <ele>14.537884712219</ele>
        <time>2011-11-04T11:54:35Z</time>
      </trkpt>
      <trkpt lat="47.73693" lon="-3.40889">
        <ele>14.554853439331</ele>
        <time>2011-11-04T11:54:40Z</time>
      </trkpt>
      <trkpt lat="47.73682" lon="-3.40882">
        <ele>14.38533782959</ele>
        <time>2011-11-04T11:54:44Z</time>
      </trkpt>
      <trkpt lat="47.73674" lon="-3.40868">
        <ele>13.810477256775</ele>
        <time>2011-11-04T11:54:48Z</time>
      </trkpt>
      <trkpt lat="47.73674" lon="-3.40843">
        <ele>12.814173698425</ele>
        <time>2011-11-04T11:54:53Z</time>
      </trkpt>
      <trkpt lat="47.73669" lon="-3.40821">
        <ele>12.419371604919</ele>
        <time>2011-11-04T11:54:59Z</time>
      </trkpt>
      <trkpt lat="47.73668" lon="-3.40797">
        <ele>12.957576751709</ele>
        <time>2011-11-04T11:55:04Z</time>
      </trkpt>
      <trkpt lat="47.73665" lon="-3.4078">
        <ele>13.34748840332</ele>
        <time>2011-11-04T11:55:08Z</time>
      </trkpt>
      <trkpt lat="47.73658" lon="-3.40755">
        <ele>13.949580192566</ele>
        <time>2011-11-04T11:55:14Z</time>
      </trkpt>
      <trkpt lat="47.73653" lon="-3.40733">
        <ele>13.074306488037</ele>
        <time>2011-11-04T11:55:19Z</time>
      </trkpt>
      <trkpt lat="47.7365" lon="-3.40715">
        <ele>11.987863540649</ele>
        <time>2011-11-04T11:55:24Z</time>
      </trkpt>
      <trkpt lat="47.7365" lon="-3.40696">
        <ele>10.903597831726</ele>
        <time>2011-11-04T11:55:28Z</time>
      </trkpt>
      <trkpt lat="47.73652" lon="-3.40676">
        <ele>9.7853679656982</ele>
        <time>2011-11-04T11:55:32Z</time>
      </trkpt>
      <trkpt lat="47.73654" lon="-3.40651">
        <ele>9.1175765991211</ele>
        <time>2011-11-04T11:55:37Z</time>
      </trkpt>
      <trkpt lat="47.73657" lon="-3.40629">
        <ele>8.7880430221558</ele>
        <time>2011-11-04T11:55:41Z</time>
      </trkpt>
      <trkpt lat="47.73658" lon="-3.40596">
        <ele>8.1617345809937</ele>
        <time>2011-11-04T11:55:46Z</time>
      </trkpt>
      <trkpt lat="47.7366" lon="-3.40587">
        <ele>7.9975924491882</ele>
        <time>2011-11-04T11:55:48Z</time>
      </trkpt>
      <trkpt lat="47.73659" lon="-3.4056">
        <ele>7.7022061347961</ele>
        <time>2011-11-04T11:55:52Z</time>
      </trkpt>
      <trkpt lat="47.73657" lon="-3.40545">
        <ele>7.5836973190308</ele>
        <time>2011-11-04T11:55:55Z</time>
      </trkpt>
      <trkpt lat="47.73658" lon="-3.40513">
        <ele>7.3172168731689</ele>
        <time>2011-11-04T11:56:01Z</time>
      </trkpt>
      <trkpt lat="47.73663" lon="-3.40484">
        <ele>6.902946472168</ele>
        <time>2011-11-04T11:56:06Z</time>
      </trkpt>
      <trkpt lat="47.73671" lon="-3.40458">
        <ele>7.147243976593</ele>
        <time>2011-11-04T11:56:11Z</time>
      </trkpt>
      <trkpt lat="47.73674" lon="-3.40436">
        <ele>7.1323952674866</ele>
        <time>2011-11-04T11:56:15Z</time>
      </trkpt>
      <trkpt lat="47.73675" lon="-3.40414">
        <ele>6.7340168952942</ele>
        <time>2011-11-04T11:56:19Z</time>
      </trkpt>
      <trkpt lat="47.73672" lon="-3.40386">
        <ele>6.0820727348328</ele>
        <time>2011-11-04T11:56:24Z</time>
      </trkpt>
      <trkpt lat="47.73668" lon="-3.40362">
        <ele>5.43772315979</ele>
        <time>2011-11-04T11:56:28Z</time>
      </trkpt>
      <trkpt lat="47.73664" lon="-3.40352">
        <ele>5.2607545852661</ele>
        <time>2011-11-04T11:56:30Z</time>
      </trkpt>
      <trkpt lat="47.73656" lon="-3.40335">
        <ele>5.1382961273193</ele>
        <time>2011-11-04T11:56:33Z</time>
      </trkpt>
      <trkpt lat="47.73654" lon="-3.40329">
        <ele>5.2021484375</ele>
        <time>2011-11-04T11:56:34Z</time>
      </trkpt>
    </trkseg>
  </trk>
</gpx>